createdAt,value
2022-08-11T00:00:36.825Z,18.94
2022-08-11T00:01:13.769Z,18.94
2022-08-11T00:01:49.294Z,18.94
2022-08-11T00:02:32.405Z,18.94
2022-08-11T00:03:08.858Z,18.94
2022-08-11T00:03:53.204Z,18.94
2022-08-11T00:04:28.556Z,18.94
2022-08-11T00:05:07.313Z,18.94
2022-08-11T00:05:45.983Z,18.88
2022-08-11T00:06:26.893Z,18.88
2022-08-11T00:07:03.695Z,18.88
2022-08-11T00:07:43.405Z,18.88
2022-08-11T00:08:24.443Z,18.88
2022-08-11T00:08:57.947Z,18.88
2022-08-11T00:09:38.837Z,18.88
2022-08-11T00:10:14.487Z,18.88
2022-08-11T00:10:53.561Z,18.81
2022-08-11T00:11:34.532Z,18.81
2022-08-11T00:12:15.268Z,18.81
2022-08-11T00:12:53.133Z,18.81
2022-08-11T00:13:35.328Z,18.81
2022-08-11T00:14:15.812Z,18.81
2022-08-11T00:14:57.296Z,18.81
2022-08-11T00:15:43.578Z,18.81
2022-08-11T00:16:18.977Z,18.81
2022-08-11T00:16:58.107Z,18.81
2022-08-11T00:17:33.181Z,18.81
2022-08-11T00:18:05.999Z,18.81
2022-08-11T00:18:42.404Z,18.81
2022-08-11T00:20:13.748Z,18.81
2022-08-11T00:20:17.483Z,18.81
2022-08-11T00:20:50.532Z,18.81
2022-08-11T00:21:54.671Z,18.81
2022-08-11T00:22:23.486Z,18.81
2022-08-11T00:23:03.010Z,18.75
2022-08-11T00:23:41.912Z,18.75
2022-08-11T00:24:15.755Z,18.75
2022-08-11T00:24:53.311Z,18.75
2022-08-11T00:25:30.116Z,18.75
2022-08-11T00:26:09.608Z,18.75
2022-08-11T00:26:49.087Z,18.75
2022-08-11T00:27:31.220Z,18.75
2022-08-11T00:28:04.010Z,18.69
2022-08-11T00:28:37.207Z,18.69
2022-08-11T00:29:11.771Z,18.69
2022-08-11T00:29:53.325Z,18.69
2022-08-11T00:30:25.848Z,18.69
2022-08-11T00:31:04.472Z,18.69
2022-08-11T00:31:38.158Z,18.69
2022-08-11T00:32:15.162Z,18.69
2022-08-11T00:32:58.655Z,18.69
2022-08-11T00:33:41.103Z,18.69
2022-08-11T00:34:20.537Z,18.63
2022-08-11T00:35:55.335Z,18.63
2022-08-11T00:35:55.548Z,18.63
2022-08-11T00:36:39.854Z,18.63
2022-08-11T00:37:19.520Z,18.56
2022-08-11T00:37:55.603Z,18.56
2022-08-11T00:38:36.611Z,18.56
2022-08-11T00:39:10.259Z,18.56
2022-08-11T00:39:45.823Z,18.56
2022-08-11T00:40:32.204Z,18.56
2022-08-11T00:41:28.500Z,18.56
2022-08-11T00:42:16.159Z,18.56
2022-08-11T00:43:20.673Z,18.56
2022-08-11T00:44:13.674Z,18.56
2022-08-11T00:44:56.971Z,18.50
2022-08-11T00:45:34.588Z,18.50
2022-08-11T00:46:16.308Z,18.50
2022-08-11T00:47:05.113Z,18.50
2022-08-11T00:47:51.552Z,18.50
2022-08-11T00:48:39.188Z,18.50
2022-08-11T00:49:22.752Z,18.44
2022-08-11T00:50:10.030Z,18.44
2022-08-11T00:51:03.243Z,18.44
2022-08-11T00:52:04.878Z,18.44
2022-08-11T00:52:59.037Z,18.44
2022-08-11T00:53:37.856Z,18.44
2022-08-11T00:54:43.763Z,18.38
2022-08-11T00:55:55.925Z,18.38
2022-08-11T00:57:02.209Z,18.38
2022-08-11T00:57:58.191Z,18.38
2022-08-11T00:59:35.587Z,18.44
2022-08-11T01:00:16.119Z,18.44
2022-08-11T01:01:06.548Z,18.44
2022-08-11T01:01:56.729Z,18.44
2022-08-11T01:03:14.406Z,18.38
2022-08-11T01:04:27.685Z,18.38
2022-08-11T01:05:35.142Z,18.38
2022-08-11T01:06:32.821Z,18.31
2022-08-11T01:08:01.397Z,18.31
2022-08-11T01:08:53.425Z,18.31
2022-08-11T01:09:53.568Z,18.31
2022-08-11T01:11:02.392Z,18.31
2022-08-11T01:11:55.866Z,18.31
2022-08-11T01:12:54.752Z,18.31
2022-08-11T01:14:11.368Z,18.25
2022-08-11T01:15:29.286Z,18.31
2022-08-11T01:16:35.005Z,18.31
2022-08-11T01:17:59.396Z,18.31
2022-08-11T01:19:09.288Z,18.31
2022-08-11T01:20:47.206Z,18.25
2022-08-11T01:21:47.077Z,18.19
2022-08-11T01:22:57.496Z,18.19
2022-08-11T01:24:14.460Z,18.19
2022-08-11T01:25:16.666Z,18.13
2022-08-11T01:26:21.135Z,18.13
2022-08-11T01:27:19.293Z,18.06
2022-08-11T01:28:40.529Z,18.06
2022-08-11T01:29:40.581Z,18.06
2022-08-11T01:30:50.398Z,18.06
2022-08-11T01:31:57.458Z,18.00
2022-08-11T01:33:05.348Z,18.00
2022-08-11T01:34:11.064Z,18.00
2022-08-11T01:35:19.127Z,18.00
2022-08-11T01:36:39.428Z,18.00
2022-08-11T01:37:31.065Z,18.00
2022-08-11T01:38:47.453Z,18.00
2022-08-11T01:39:44.455Z,18.00
2022-08-11T01:40:36.204Z,17.94
2022-08-11T01:41:52.192Z,17.94
2022-08-11T01:43:13.906Z,17.94
2022-08-11T01:44:49.175Z,17.94
2022-08-11T01:45:32.130Z,17.94
2022-08-11T01:46:14.002Z,17.94
2022-08-11T01:46:52.076Z,17.94
2022-08-11T01:47:54.179Z,17.94
2022-08-11T01:48:40.878Z,17.94
2022-08-11T01:50:05.751Z,17.94
2022-08-11T01:50:27.738Z,17.94
2022-08-11T01:51:16.986Z,17.94
2022-08-11T01:52:03.439Z,17.88
2022-08-11T01:52:49.114Z,17.88
2022-08-11T01:53:31.855Z,17.88
2022-08-11T01:54:06.592Z,17.88
2022-08-11T01:54:48.974Z,17.88
2022-08-11T01:55:28.116Z,17.88
2022-08-11T01:56:09.964Z,17.88
2022-08-11T01:56:59.774Z,17.88
2022-08-11T01:57:37.803Z,17.88
2022-08-11T01:58:43.670Z,17.88
2022-08-11T01:59:22.038Z,17.88
2022-08-11T02:00:02.579Z,17.88
2022-08-11T02:00:51.138Z,17.88
2022-08-11T02:01:42.716Z,17.88
2022-08-11T02:02:45.988Z,17.88
2022-08-11T02:03:24.658Z,17.81
2022-08-11T02:04:07.850Z,17.81
2022-08-11T02:04:53.224Z,17.81
2022-08-11T02:05:47.241Z,17.75
2022-08-11T02:06:42.802Z,17.75
2022-08-11T02:07:23.031Z,17.75
2022-08-11T02:08:01.834Z,17.69
2022-08-11T02:08:50.428Z,17.69
2022-08-11T02:09:42.122Z,17.69
2022-08-11T02:10:50.789Z,17.69
2022-08-11T02:11:35.577Z,17.69
2022-08-11T02:12:21.489Z,17.69
2022-08-11T02:13:00.810Z,17.69
2022-08-11T02:13:46.720Z,17.75
2022-08-11T02:14:28.858Z,17.69
2022-08-11T02:15:09.356Z,17.69
2022-08-11T02:15:47.629Z,17.69
2022-08-11T02:16:31.230Z,17.69
2022-08-11T02:17:15.318Z,17.69
2022-08-11T02:17:57.957Z,17.69
2022-08-11T02:18:52.263Z,17.69
2022-08-11T02:19:52.162Z,17.69
2022-08-11T02:20:46.900Z,17.69
2022-08-11T02:21:48.173Z,17.63
2022-08-11T02:22:47.537Z,17.63
2022-08-11T02:24:05.508Z,17.63
2022-08-11T02:24:41.767Z,17.56
2022-08-11T02:25:25.763Z,17.56
2022-08-11T02:26:03.412Z,17.56
2022-08-11T02:26:41.675Z,17.56
2022-08-11T02:27:20.778Z,17.56
2022-08-11T02:28:01.462Z,17.56
2022-08-11T02:28:50.920Z,17.56
2022-08-11T02:29:29.946Z,17.56
2022-08-11T02:30:07.312Z,17.56
2022-08-11T02:31:08.903Z,17.56
2022-08-11T02:32:28.825Z,17.56
2022-08-11T02:33:25.522Z,17.56
2022-08-11T02:34:12.380Z,17.50
2022-08-11T02:34:59.645Z,17.50
2022-08-11T02:35:42.810Z,17.44
2022-08-11T02:36:22.190Z,17.44
2022-08-11T02:37:01.117Z,17.44
2022-08-11T02:37:47.588Z,17.38
2022-08-11T02:38:28.001Z,17.38
2022-08-11T02:39:09.602Z,17.38
2022-08-11T02:39:55.649Z,17.38
2022-08-11T02:40:42.085Z,17.38
2022-08-11T02:41:40.406Z,17.31
2022-08-11T02:42:33.475Z,17.31
2022-08-11T02:43:20.020Z,17.31
2022-08-11T02:44:12.214Z,17.25
2022-08-11T02:44:57.257Z,17.25
2022-08-11T02:45:47.894Z,17.25
2022-08-11T02:46:26.753Z,17.25
2022-08-11T02:47:07.106Z,17.25
2022-08-11T02:48:06.196Z,17.25
2022-08-11T02:49:06.592Z,17.25
2022-08-11T02:50:02.671Z,17.19
2022-08-11T02:50:49.178Z,17.19
2022-08-11T02:51:36.082Z,17.19
2022-08-11T02:52:15.579Z,17.19
2022-08-11T02:52:52.081Z,17.13
2022-08-11T02:53:32.994Z,17.13
2022-08-11T02:54:13.164Z,17.13
2022-08-11T02:54:53.974Z,17.13
2022-08-11T02:55:48.888Z,17.13
2022-08-11T02:56:38.207Z,17.13
2022-08-11T02:57:19.377Z,17.13
2022-08-11T02:57:56.711Z,17.06
2022-08-11T02:58:39.204Z,17.06
2022-08-11T02:59:46.938Z,17.06
2022-08-11T03:00:21.807Z,17.06
2022-08-11T03:00:57.551Z,17.06
2022-08-11T03:01:44.283Z,17.06
2022-08-11T03:02:33.635Z,17.06
2022-08-11T03:03:17.312Z,17.06
2022-08-11T03:04:01.430Z,17.06
2022-08-11T03:04:46.212Z,17.06
2022-08-11T03:05:38.701Z,17.06
2022-08-11T03:06:23.990Z,17.06
2022-08-11T03:07:28.960Z,17.06
2022-08-11T03:08:23.452Z,17.13
2022-08-11T03:09:05.403Z,17.13
2022-08-11T03:09:50.962Z,17.13
2022-08-11T03:10:27.077Z,17.06
2022-08-11T03:11:26.014Z,17.13
2022-08-11T03:12:25.166Z,17.06
2022-08-11T03:13:22.859Z,17.06
2022-08-11T03:14:28.381Z,17.06
2022-08-11T03:15:26.449Z,17.06
2022-08-11T03:16:31.926Z,17.06
2022-08-11T03:17:17.388Z,17.00
2022-08-11T03:18:04.030Z,17.00
2022-08-11T03:18:43.708Z,17.00
2022-08-11T03:19:26.315Z,17.06
2022-08-11T03:20:12.133Z,17.06
2022-08-11T03:20:52.769Z,17.06
2022-08-11T03:21:52.334Z,17.13
2022-08-11T03:22:30.504Z,17.13
2022-08-11T03:23:19.898Z,17.13
2022-08-11T03:24:01.562Z,17.06
2022-08-11T03:24:53.268Z,17.06
2022-08-11T03:25:32.361Z,17.06
2022-08-11T03:26:12.180Z,17.00
2022-08-11T03:26:57.280Z,17.00
2022-08-11T03:27:40.202Z,17.00
2022-08-11T03:28:27.339Z,16.94
2022-08-11T03:29:08.796Z,16.94
2022-08-11T03:29:50.129Z,16.94
2022-08-11T03:30:28.516Z,16.88
2022-08-11T03:31:20.352Z,16.88
2022-08-11T03:32:01.955Z,16.88
2022-08-11T03:32:41.487Z,16.88
2022-08-11T03:33:40.192Z,16.81
2022-08-11T03:34:19.244Z,16.81
2022-08-11T03:34:52.814Z,16.81
2022-08-11T03:35:25.752Z,16.81
2022-08-11T03:36:08.191Z,16.81
2022-08-11T03:37:17.550Z,16.81
2022-08-11T03:38:02.256Z,16.75
2022-08-11T03:38:58.067Z,16.75
2022-08-11T03:39:51.117Z,16.75
2022-08-11T03:40:57.555Z,16.75
2022-08-11T03:42:02.464Z,16.75
2022-08-11T03:42:50.165Z,16.75
2022-08-11T03:43:58.454Z,16.69
2022-08-11T03:44:44.738Z,16.69
2022-08-11T03:45:27.134Z,16.69
2022-08-11T03:46:05.955Z,16.69
2022-08-11T03:46:55.272Z,16.69
2022-08-11T03:47:55.433Z,16.69
2022-08-11T03:48:39.600Z,16.69
2022-08-11T03:49:30.861Z,16.69
2022-08-11T03:50:13.456Z,16.69
2022-08-11T03:51:05.985Z,16.69
2022-08-11T03:51:51.854Z,16.69
2022-08-11T03:52:45.072Z,16.69
2022-08-11T03:53:32.789Z,16.69
2022-08-11T03:54:16.016Z,16.69
2022-08-11T03:54:55.698Z,16.69
2022-08-11T03:55:43.713Z,16.69
2022-08-11T03:56:46.748Z,16.69
2022-08-11T03:58:04.916Z,16.69
2022-08-11T03:59:08.500Z,16.75
2022-08-11T04:00:22.399Z,16.75
2022-08-11T04:01:37.977Z,16.75
2022-08-11T04:02:28.352Z,16.75
2022-08-11T04:03:57.839Z,16.69
2022-08-11T04:05:02.464Z,16.69
2022-08-11T04:06:15.879Z,16.69
2022-08-11T04:07:20.193Z,16.69
2022-08-11T04:08:34.258Z,16.69
2022-08-11T04:09:49.370Z,16.63
2022-08-11T04:11:00.696Z,16.63
2022-08-11T04:12:14.679Z,16.63
2022-08-11T04:13:40.705Z,16.69
2022-08-11T04:15:03.955Z,16.69
2022-08-11T04:16:12.330Z,16.69
2022-08-11T04:16:56.988Z,16.69
2022-08-11T04:18:27.001Z,16.69
2022-08-11T04:19:47.248Z,16.63
2022-08-11T04:20:44.557Z,16.63
2022-08-11T04:21:51.509Z,16.69
2022-08-11T04:22:48.890Z,16.69
2022-08-11T04:24:35.989Z,16.69
2022-08-11T04:25:30.949Z,16.63
2022-08-11T04:26:37.247Z,16.63
2022-08-11T04:27:46.055Z,16.69
2022-08-11T04:29:02.119Z,16.69
2022-08-11T04:30:03.702Z,16.69
2022-08-11T04:30:58.304Z,16.69
2022-08-11T04:31:50.318Z,16.69
2022-08-11T04:33:04.877Z,16.63
2022-08-11T04:34:02.844Z,16.63
2022-08-11T04:34:47.525Z,16.63
2022-08-11T04:35:38.983Z,16.63
2022-08-11T04:36:51.489Z,16.63
2022-08-11T04:38:10.013Z,16.63
2022-08-11T04:39:10.756Z,16.56
2022-08-11T04:40:00.161Z,16.56
2022-08-11T04:40:51.692Z,16.56
2022-08-11T04:42:23.042Z,16.56
2022-08-11T04:44:02.577Z,16.56
2022-08-11T04:45:12.002Z,16.56
2022-08-11T04:46:22.555Z,16.56
2022-08-11T04:47:11.314Z,16.56
2022-08-11T04:48:25.019Z,16.56
2022-08-11T04:49:52.895Z,16.56
2022-08-11T04:51:09.160Z,16.56
2022-08-11T04:52:35.952Z,16.56
2022-08-11T04:54:02.490Z,16.56
2022-08-11T04:55:11.873Z,16.63
2022-08-11T04:56:21.971Z,16.63
2022-08-11T04:57:22.490Z,16.69
2022-08-11T04:58:31.310Z,16.69
2022-08-11T04:59:50.040Z,16.69
2022-08-11T05:00:48.481Z,16.69
2022-08-11T05:01:43.535Z,16.69
2022-08-11T05:03:03.855Z,16.69
2022-08-11T05:04:05.448Z,16.69
2022-08-11T05:05:10.275Z,16.69
2022-08-11T05:06:25.226Z,16.75
2022-08-11T05:07:33.321Z,16.81
2022-08-11T05:08:41.394Z,16.81
2022-08-11T05:09:29.593Z,16.81
2022-08-11T05:10:17.173Z,16.81
2022-08-11T05:11:12.959Z,16.81
2022-08-11T05:12:21.252Z,16.88
2022-08-11T05:12:57.203Z,16.88
2022-08-11T05:13:51.395Z,16.88
2022-08-11T05:14:51.718Z,16.94
2022-08-11T05:15:59.812Z,16.94
2022-08-11T05:17:01.787Z,17.00
2022-08-11T05:18:14.258Z,17.06
2022-08-11T05:19:08.022Z,17.13
2022-08-11T05:20:00.531Z,17.13
2022-08-11T05:21:05.321Z,17.19
2022-08-11T05:22:02.637Z,17.25
2022-08-11T05:22:55.334Z,17.31
2022-08-11T05:23:47.297Z,17.38
2022-08-11T05:24:41.584Z,17.38
2022-08-11T05:26:44.551Z,17.44
2022-08-11T05:26:56.111Z,17.44
2022-08-11T05:27:54.477Z,17.50
2022-08-11T05:28:51.401Z,17.56
2022-08-11T05:29:57.442Z,17.56
2022-08-11T05:30:49.605Z,17.63
2022-08-11T05:31:49.019Z,17.63
2022-08-11T05:32:41.733Z,17.69
2022-08-11T05:33:39.534Z,17.69
2022-08-11T05:34:35.717Z,17.75
2022-08-11T05:35:10.680Z,17.75
2022-08-11T05:36:07.411Z,17.75
2022-08-11T05:36:48.001Z,17.81
2022-08-11T05:37:27.257Z,17.81
2022-08-11T05:38:19.363Z,17.81
2022-08-11T05:39:16.003Z,17.88
2022-08-11T05:40:09.859Z,17.88
2022-08-11T05:41:08.196Z,17.94
2022-08-11T05:41:59.868Z,18.00
2022-08-11T05:42:57.138Z,18.06
2022-08-11T05:44:20.425Z,18.06
2022-08-11T05:45:03.239Z,18.13
2022-08-11T05:45:58.271Z,18.19
2022-08-11T05:46:59.933Z,18.25
2022-08-11T05:47:52.722Z,18.25
2022-08-11T05:48:51.587Z,18.31
2022-08-11T05:49:43.520Z,18.31
2022-08-11T05:50:37.119Z,18.38
2022-08-11T05:51:30.407Z,18.38
2022-08-11T05:52:31.631Z,18.44
2022-08-11T05:53:27.211Z,18.44
2022-08-11T05:54:27.903Z,18.50
2022-08-11T05:55:22.829Z,18.56
2022-08-11T05:56:14.932Z,18.56
2022-08-11T05:56:54.268Z,18.56
2022-08-11T05:57:49.989Z,18.56
2022-08-11T05:58:26.519Z,18.56
2022-08-11T05:58:59.529Z,18.56
2022-08-11T05:59:34.278Z,18.56
2022-08-11T06:00:10.269Z,18.56
2022-08-11T06:00:45.753Z,18.56
2022-08-11T06:01:25.367Z,18.63
2022-08-11T06:02:01.935Z,18.63
2022-08-11T06:02:39.748Z,18.63
2022-08-11T06:03:23.587Z,18.63
2022-08-11T06:04:17.180Z,18.63
2022-08-11T06:04:57.143Z,18.63
2022-08-11T06:05:37.308Z,18.63
2022-08-11T06:06:16.420Z,18.63
2022-08-11T06:06:58.029Z,18.63
2022-08-11T06:07:47.288Z,18.69
2022-08-11T06:08:31.314Z,18.69
2022-08-11T06:09:04.229Z,18.69
2022-08-11T06:09:38.697Z,18.69
2022-08-11T06:10:12.989Z,18.69
2022-08-11T06:10:46.782Z,18.69
2022-08-11T06:11:20.153Z,18.75
2022-08-11T06:12:19.320Z,18.75
2022-08-11T06:12:54.014Z,18.75
2022-08-11T06:13:28.774Z,18.75
2022-08-11T06:14:04.786Z,18.75
2022-08-11T06:14:44.384Z,18.81
2022-08-11T06:15:17.950Z,18.81
2022-08-11T06:15:52.340Z,18.81
2022-08-11T06:16:28.229Z,18.81
2022-08-11T06:17:04.133Z,18.88
2022-08-11T06:17:45.446Z,18.88
2022-08-11T06:18:20.167Z,18.88
2022-08-11T06:18:53.195Z,18.94
2022-08-11T06:19:36.326Z,18.94
2022-08-11T06:20:12.989Z,18.94
2022-08-11T06:20:47.619Z,19.00
2022-08-11T06:21:21.189Z,19.00
2022-08-11T06:21:55.211Z,19.00
2022-08-11T06:22:28.494Z,19.06
2022-08-11T06:23:05.447Z,19.06
2022-08-11T06:23:40.544Z,19.06
2022-08-11T06:24:14.279Z,19.13
2022-08-11T06:24:56.419Z,19.13
2022-08-11T06:25:33.459Z,19.13
2022-08-11T06:26:09.919Z,19.13
2022-08-11T06:27:11.256Z,19.19
2022-08-11T06:27:44.293Z,19.19
2022-08-11T06:28:21.291Z,19.25
2022-08-11T06:28:59.758Z,19.25
2022-08-11T06:29:37.392Z,19.31
2022-08-11T06:30:13.550Z,19.31
2022-08-11T06:30:48.903Z,19.38
2022-08-11T06:31:24.173Z,19.38
2022-08-11T06:31:59.456Z,19.38
2022-08-11T06:32:35.953Z,19.44
2022-08-11T06:33:11.398Z,19.44
2022-08-11T06:33:57.865Z,19.44
2022-08-11T06:34:53.916Z,19.50
2022-08-11T06:35:38.688Z,19.50
2022-08-11T06:36:22.159Z,19.56
2022-08-11T06:36:59.970Z,19.56
2022-08-11T06:37:44.938Z,19.63
2022-08-11T06:38:35.096Z,19.63
2022-08-11T06:39:17.564Z,19.69
2022-08-11T06:40:01.601Z,19.69
2022-08-11T06:40:44.443Z,19.75
2022-08-11T06:41:30.600Z,19.75
2022-08-11T06:42:07.008Z,19.75
2022-08-11T06:42:55.838Z,19.81
2022-08-11T06:43:36.402Z,19.81
2022-08-11T06:44:25.206Z,19.81
2022-08-11T06:45:12.947Z,19.88
2022-08-11T06:45:53.319Z,19.88
2022-08-11T06:46:30.201Z,19.94
2022-08-11T06:47:08.757Z,19.94
2022-08-11T06:47:45.750Z,20.00
2022-08-11T06:48:22.187Z,20.00
2022-08-11T06:48:55.228Z,20.00
2022-08-11T06:49:55.342Z,20.00
2022-08-11T06:50:52.852Z,20.06
2022-08-11T06:51:27.220Z,20.06
2022-08-11T06:52:06.852Z,20.13
2022-08-11T06:52:51.104Z,20.13
2022-08-11T06:53:23.906Z,20.19
2022-08-11T06:54:04.514Z,20.19
2022-08-11T06:54:44.261Z,20.25
2022-08-11T06:55:58.015Z,20.31
2022-08-11T06:57:12.068Z,20.31
2022-08-11T06:58:07.826Z,20.38
2022-08-11T06:58:59.836Z,20.50
2022-08-11T06:59:53.943Z,20.75
2022-08-11T07:00:29.304Z,21.00
2022-08-11T07:01:10.251Z,21.25
2022-08-11T07:01:51.572Z,21.56
2022-08-11T07:02:31.296Z,21.81
2022-08-11T07:03:10.525Z,22.06
2022-08-11T07:03:47.593Z,22.25
2022-08-11T07:04:29.224Z,22.38
2022-08-11T07:05:08.220Z,22.50
2022-08-11T07:05:45.628Z,22.63
2022-08-11T07:06:35.984Z,22.63
2022-08-11T07:08:33.828Z,22.69
2022-08-11T07:09:52.176Z,22.69
2022-08-11T07:10:56.053Z,22.63
2022-08-11T07:12:15.615Z,22.56
2022-08-11T07:13:44.626Z,22.44
2022-08-11T07:14:38.638Z,22.44
2022-08-11T07:16:12.485Z,22.44
2022-08-11T07:16:36.494Z,22.56
2022-08-11T07:17:18.931Z,22.63
2022-08-11T07:18:19.945Z,22.75
2022-08-11T07:19:18.238Z,22.81
2022-08-11T07:20:17.263Z,22.94
2022-08-11T07:22:01.201Z,23.00
2022-08-11T07:22:23.236Z,23.00
2022-08-11T07:23:20.461Z,23.06
2022-08-11T07:24:14.946Z,23.13
2022-08-11T07:25:13.627Z,23.25
2022-08-11T07:26:11.466Z,23.38
2022-08-11T07:27:08.538Z,23.50
2022-08-11T07:28:03.166Z,23.56
2022-08-11T07:28:59.556Z,23.69
2022-08-11T07:29:33.476Z,23.75
2022-08-11T07:30:09.877Z,23.81
2022-08-11T07:30:44.805Z,23.88
2022-08-11T07:31:21.886Z,23.94
2022-08-11T07:31:56.093Z,23.94
2022-08-11T07:32:31.561Z,24.00
2022-08-11T07:33:04.884Z,24.06
2022-08-11T07:34:06.437Z,24.06
2022-08-11T07:34:49.306Z,24.13
2022-08-11T07:35:28.458Z,24.13
2022-08-11T07:36:03.484Z,24.19
2022-08-11T07:36:40.000Z,24.19
2022-08-11T07:37:19.762Z,24.19
2022-08-11T07:38:01.365Z,24.25
2022-08-11T07:38:45.049Z,24.25
2022-08-11T07:39:22.524Z,24.31
2022-08-11T07:39:56.811Z,24.38
2022-08-11T07:40:30.069Z,24.44
2022-08-11T07:41:02.719Z,24.50
2022-08-11T07:41:36.831Z,24.50
2022-08-11T07:42:11.691Z,24.56
2022-08-11T07:42:46.656Z,24.56
2022-08-11T07:43:19.421Z,24.63
2022-08-11T07:43:55.006Z,24.69
2022-08-11T07:44:34.795Z,24.75
2022-08-11T07:45:28.230Z,24.75
2022-08-11T07:46:23.090Z,24.81
2022-08-11T07:47:14.870Z,24.88
2022-08-11T07:48:07.033Z,24.94
2022-08-11T07:49:01.512Z,25.13
2022-08-11T07:49:55.277Z,25.25
2022-08-11T07:50:46.582Z,25.38
2022-08-11T07:51:38.605Z,25.44
2022-08-11T07:52:32.334Z,25.56
2022-08-11T07:53:05.053Z,25.69
2022-08-11T07:53:57.824Z,25.75
2022-08-11T07:54:33.572Z,25.81
2022-08-11T07:55:10.309Z,25.81
2022-08-11T07:55:48.981Z,25.88
2022-08-11T07:56:37.868Z,25.94
2022-08-11T07:58:13.903Z,25.94
2022-08-11T07:58:53.399Z,26.00
2022-08-11T08:00:03.345Z,26.00
2022-08-11T08:01:10.763Z,26.00
2022-08-11T08:02:14.215Z,26.00
2022-08-11T08:03:05.363Z,26.06
2022-08-11T08:03:57.217Z,26.13
2022-08-11T08:04:48.361Z,26.25
2022-08-11T08:05:40.162Z,26.31
2022-08-11T08:06:36.276Z,26.38
2022-08-11T08:07:27.564Z,26.50
2022-08-11T08:08:21.677Z,26.63
2022-08-11T08:09:15.375Z,26.75
2022-08-11T08:10:08.238Z,26.88
2022-08-11T08:10:59.014Z,26.81
2022-08-11T08:11:49.769Z,26.75
2022-08-11T08:12:42.940Z,26.75
2022-08-11T08:13:35.293Z,26.81
2022-08-11T08:14:27.906Z,26.94
2022-08-11T08:15:24.555Z,27.00
2022-08-11T08:16:15.989Z,27.00
2022-08-11T08:17:07.549Z,27.06
2022-08-11T08:18:09.190Z,27.13
2022-08-11T08:18:45.213Z,27.13
2022-08-11T08:19:20.755Z,27.19
2022-08-11T08:19:54.945Z,27.25
2022-08-11T08:20:31.425Z,27.31
2022-08-11T08:21:12.938Z,27.38
2022-08-11T08:21:46.731Z,27.44
2022-08-11T08:22:38.141Z,27.44
2022-08-11T08:23:13.109Z,27.50
2022-08-11T08:23:47.242Z,27.50
2022-08-11T08:24:28.045Z,27.44
2022-08-11T08:25:01.818Z,27.50
2022-08-11T08:25:38.083Z,27.50
2022-08-11T08:26:28.042Z,27.56
2022-08-11T08:27:01.779Z,27.63
2022-08-11T08:27:35.553Z,27.63
2022-08-11T08:28:13.961Z,27.63
2022-08-11T08:28:46.651Z,27.69
2022-08-11T08:29:40.450Z,27.69
2022-08-11T08:30:32.724Z,27.75
2022-08-11T08:31:05.450Z,27.75
2022-08-11T08:31:38.097Z,27.81
2022-08-11T08:32:12.282Z,27.81
2022-08-11T08:32:46.155Z,27.81
2022-08-11T08:33:23.038Z,27.75
2022-08-11T08:33:56.171Z,27.75
2022-08-11T08:34:28.821Z,27.75
2022-08-11T08:35:07.643Z,27.75
2022-08-11T08:35:54.185Z,27.69
2022-08-11T08:36:29.369Z,27.63
2022-08-11T08:37:01.927Z,27.56
2022-08-11T08:37:46.087Z,27.56
2022-08-11T08:38:21.323Z,27.56
2022-08-11T08:38:57.522Z,27.63
2022-08-11T08:39:33.692Z,27.69
2022-08-11T08:40:09.957Z,27.69
2022-08-11T08:40:45.702Z,27.69
2022-08-11T08:41:23.269Z,27.69
2022-08-11T08:41:58.151Z,27.63
2022-08-11T08:42:32.859Z,27.69
2022-08-11T08:43:10.866Z,27.69
2022-08-11T08:43:49.218Z,27.75
2022-08-11T08:44:41.375Z,27.75
2022-08-11T08:45:18.445Z,27.81
2022-08-11T08:45:55.390Z,27.81
2022-08-11T08:46:41.011Z,27.88
2022-08-11T08:47:36.189Z,27.88
2022-08-11T08:48:15.913Z,28.00
2022-08-11T08:48:49.232Z,28.00
2022-08-11T08:49:27.726Z,28.00
2022-08-11T08:50:03.559Z,28.00
2022-08-11T08:50:57.336Z,28.00
2022-08-11T08:52:01.571Z,28.06
2022-08-11T08:52:41.056Z,28.19
2022-08-11T08:53:21.085Z,28.31
2022-08-11T08:53:58.552Z,28.38
2022-08-11T08:54:38.699Z,28.50
2022-08-11T08:55:18.191Z,28.56
2022-08-11T08:55:51.803Z,28.56
2022-08-11T08:56:28.183Z,28.63
2022-08-11T08:57:05.384Z,28.63
2022-08-11T08:57:40.271Z,28.63
2022-08-11T08:58:14.119Z,28.63
2022-08-11T08:58:51.745Z,28.56
2022-08-11T08:59:48.433Z,28.56
2022-08-11T09:00:23.622Z,28.50
2022-08-11T09:00:58.597Z,28.50
2022-08-11T09:01:36.150Z,28.56
2022-08-11T09:02:12.915Z,28.56
2022-08-11T09:02:46.634Z,28.63
2022-08-11T09:03:41.028Z,28.63
2022-08-11T09:04:20.769Z,28.69
2022-08-11T09:04:54.227Z,28.69
2022-08-11T09:05:27.847Z,28.75
2022-08-11T09:06:00.841Z,28.75
2022-08-11T09:06:33.580Z,28.75
2022-08-11T09:07:12.325Z,28.69
2022-08-11T09:07:47.677Z,28.63
2022-08-11T09:08:22.858Z,28.63
2022-08-11T09:08:55.448Z,28.56
2022-08-11T09:09:28.455Z,28.50
2022-08-11T09:10:02.816Z,28.44
2022-08-11T09:10:36.970Z,28.38
2022-08-11T09:11:30.425Z,28.38
2022-08-11T09:12:05.515Z,28.44
2022-08-11T09:12:42.262Z,28.38
2022-08-11T09:13:16.584Z,28.31
2022-08-11T09:14:05.540Z,28.31
2022-08-11T09:15:02.919Z,28.31
2022-08-11T09:15:37.750Z,28.38
2022-08-11T09:16:11.179Z,28.38
2022-08-11T09:16:44.374Z,28.44
2022-08-11T09:17:18.805Z,28.50
2022-08-11T09:17:55.001Z,28.56
2022-08-11T09:18:33.735Z,28.56
2022-08-11T09:19:12.399Z,28.63
2022-08-11T09:19:49.593Z,28.69
2022-08-11T09:20:34.259Z,28.88
2022-08-11T09:21:07.521Z,28.94
2022-08-11T09:21:49.622Z,29.00
2022-08-11T09:22:41.124Z,29.06
2022-08-11T09:24:44.994Z,29.19
2022-08-11T09:25:37.855Z,29.13
2022-08-11T09:26:30.304Z,29.13
2022-08-11T09:27:09.576Z,29.06
2022-08-11T09:27:50.577Z,29.06
2022-08-11T09:28:24.897Z,29.06
2022-08-11T09:28:59.176Z,29.13
2022-08-11T09:29:33.967Z,29.13
2022-08-11T09:30:08.249Z,29.19
2022-08-11T09:30:43.214Z,29.31
2022-08-11T09:31:17.139Z,29.38
2022-08-11T09:31:50.710Z,29.38
2022-08-11T09:32:23.995Z,29.38
2022-08-11T09:33:00.408Z,29.38
2022-08-11T09:33:36.264Z,29.44
2022-08-11T09:34:11.649Z,29.50
2022-08-11T09:34:44.222Z,29.50
2022-08-11T09:35:18.332Z,29.56
2022-08-11T09:35:53.802Z,29.63
2022-08-11T09:36:57.092Z,29.63
2022-08-11T09:37:54.326Z,29.63
2022-08-11T09:38:49.591Z,29.56
2022-08-11T09:39:41.306Z,29.50
2022-08-11T09:40:30.625Z,29.50
2022-08-11T09:41:06.535Z,29.50
2022-08-11T09:42:00.582Z,29.50
2022-08-11T09:42:48.465Z,29.56
2022-08-11T09:43:39.714Z,29.50
2022-08-11T09:44:32.461Z,29.44
2022-08-11T09:45:11.590Z,29.38
2022-08-11T09:45:51.685Z,29.38
2022-08-11T09:46:27.749Z,29.38
2022-08-11T09:47:02.405Z,29.38
2022-08-11T09:47:35.962Z,29.44
2022-08-11T09:48:08.864Z,29.50
2022-08-11T09:48:46.115Z,29.63
2022-08-11T09:49:21.465Z,29.69
2022-08-11T09:50:00.222Z,29.69
2022-08-11T09:50:34.976Z,29.75
2022-08-11T09:51:08.712Z,29.75
2022-08-11T09:51:42.225Z,29.75
2022-08-11T09:52:48.085Z,29.75
2022-08-11T09:53:37.403Z,29.69
2022-08-11T09:54:17.044Z,29.69
2022-08-11T09:54:50.791Z,29.69
2022-08-11T09:55:24.487Z,29.69
2022-08-11T09:55:57.771Z,29.69
2022-08-11T09:56:50.119Z,29.69
2022-08-11T09:57:55.140Z,29.75
2022-08-11T09:58:41.575Z,29.94
2022-08-11T09:59:21.689Z,30.00
2022-08-11T10:00:12.762Z,30.13
2022-08-11T10:00:51.989Z,30.25
2022-08-11T10:01:29.914Z,30.31
2022-08-11T10:02:03.602Z,30.31
2022-08-11T10:02:43.497Z,30.25
2022-08-11T10:03:17.888Z,30.31
2022-08-11T10:03:58.315Z,30.31
2022-08-11T10:04:37.799Z,30.38
2022-08-11T10:05:30.235Z,30.38
2022-08-11T10:06:33.063Z,30.44
2022-08-11T10:07:10.414Z,30.56
2022-08-11T10:07:50.317Z,30.56
2022-08-11T10:08:28.017Z,30.63
2022-08-11T10:09:03.119Z,30.69
2022-08-11T10:09:39.635Z,30.69
2022-08-11T10:10:13.379Z,30.75
2022-08-11T10:10:47.883Z,30.75
2022-08-11T10:11:25.548Z,30.81
2022-08-11T10:11:59.369Z,30.81
2022-08-11T10:12:37.205Z,30.81
2022-08-11T10:14:04.825Z,30.81
2022-08-11T10:14:30.985Z,30.75
2022-08-11T10:15:28.138Z,30.75
2022-08-11T10:16:15.613Z,30.75
2022-08-11T10:16:52.119Z,30.75
2022-08-11T10:17:25.577Z,30.75
2022-08-11T10:18:20.945Z,30.69
2022-08-11T10:18:57.223Z,30.63
2022-08-11T10:19:32.764Z,30.63
2022-08-11T10:20:09.050Z,30.69
2022-08-11T10:20:42.754Z,30.69
2022-08-11T10:21:23.384Z,30.75
2022-08-11T10:22:14.527Z,30.69